sensor_id;sensor_type;location;lat;lon;timestamp;pressure;altitude;pressure_sealevel;temperature;humidity
48862;BME280;34681;49.188;-0.374;2023-02-01T00:01:44;102697.00;;;10.58;67.79
48862;BME280;34681;49.188;-0.374;2023-02-01T00:04:10;102696.75;;;10.75;67.51
48862;BME280;34681;49.188;-0.374;2023-02-01T00:06:35;102702.16;;;10.77;67.59
48862;BME280;34681;49.188;-0.374;2023-02-01T00:09:01;102699.59;;;10.88;66.92
48862;BME280;34681;49.188;-0.374;2023-02-01T00:11:26;102706.19;;;10.57;67.18
48862;BME280;34681;49.188;-0.374;2023-02-01T00:13:52;102700.63;;;10.44;67.01
48862;BME280;34681;49.188;-0.374;2023-02-01T00:16:26;102701.09;;;10.65;66.71
48862;BME280;34681;49.188;-0.374;2023-02-01T00:18:58;102710.69;;;10.58;66.66
48862;BME280;34681;49.188;-0.374;2023-02-01T00:21:24;102705.31;;;10.56;66.84
48862;BME280;34681;49.188;-0.374;2023-02-01T00:23:49;102694.47;;;10.55;66.20
48862;BME280;34681;49.188;-0.374;2023-02-01T00:26:20;102691.16;;;10.35;66.01
48862;BME280;34681;49.188;-0.374;2023-02-01T00:28:47;102693.69;;;10.24;65.24
48862;BME280;34681;49.188;-0.374;2023-02-01T00:31:14;102706.03;;;9.87;65.79
48862;BME280;34681;49.188;-0.374;2023-02-01T00:33:40;102701.75;;;9.97;65.90
48862;BME280;34681;49.188;-0.374;2023-02-01T00:36:07;102704.19;;;10.16;65.17
48862;BME280;34681;49.188;-0.374;2023-02-01T00:38:35;102698.56;;;10.19;64.76
48862;BME280;34681;49.188;-0.374;2023-02-01T00:41:16;102701.00;;;10.09;64.64
48862;BME280;34681;49.188;-0.374;2023-02-01T00:43:42;102689.78;;;9.84;65.21
48862;BME280;34681;49.188;-0.374;2023-02-01T00:46:09;102693.59;;;9.81;64.92
48862;BME280;34681;49.188;-0.374;2023-02-01T00:48:35;102699.22;;;9.64;65.77
48862;BME280;34681;49.188;-0.374;2023-02-01T00:51:01;102693.59;;;9.81;66.05
48862;BME280;34681;49.188;-0.374;2023-02-01T00:53:28;102695.72;;;10.21;64.80
48862;BME280;34681;49.188;-0.374;2023-02-01T00:55:53;102692.38;;;10.16;65.35
48862;BME280;34681;49.188;-0.374;2023-02-01T00:58:18;102689.84;;;10.12;64.86
48862;BME280;34681;49.188;-0.374;2023-02-01T01:00:44;102692.53;;;9.70;65.86
48862;BME280;34681;49.188;-0.374;2023-02-01T01:03:09;102694.31;;;9.85;66.22
48862;BME280;34681;49.188;-0.374;2023-02-01T01:05:48;102693.66;;;9.66;66.17
48862;BME280;34681;49.188;-0.374;2023-02-01T01:08:14;102688.50;;;9.75;65.97
48862;BME280;34681;49.188;-0.374;2023-02-01T01:10:40;102693.25;;;9.88;65.37
48862;BME280;34681;49.188;-0.374;2023-02-01T01:13:07;102700.47;;;9.89;65.43
48862;BME280;34681;49.188;-0.374;2023-02-01T01:15:36;102713.47;;;9.55;65.74
48862;BME280;34681;49.188;-0.374;2023-02-01T01:18:02;102695.56;;;9.49;66.26
48862;BME280;34681;49.188;-0.374;2023-02-01T01:20:28;102701.22;;;9.46;65.86
48862;BME280;34681;49.188;-0.374;2023-02-01T01:22:54;102706.91;;;9.43;66.55
48862;BME280;34681;49.188;-0.374;2023-02-01T01:25:19;102708.13;;;9.68;65.66
48862;BME280;34681;49.188;-0.374;2023-02-01T01:27:44;102708.50;;;9.62;65.90
48862;BME280;34681;49.188;-0.374;2023-02-01T01:30:10;102711.97;;;9.79;65.70
48862;BME280;34681;49.188;-0.374;2023-02-01T01:32:35;102710.22;;;9.78;65.74
48862;BME280;34681;49.188;-0.374;2023-02-01T01:35:00;102716.25;;;9.83;65.77
48862;BME280;34681;49.188;-0.374;2023-02-01T01:37:26;102723.72;;;9.96;65.61
48862;BME280;34681;49.188;-0.374;2023-02-01T01:39:51;102715.16;;;10.02;65.38
48862;BME280;34681;49.188;-0.374;2023-02-01T01:42:16;102717.78;;;10.03;65.13
48862;BME280;34681;49.188;-0.374;2023-02-01T01:44:58;102707.13;;;9.99;65.38
48862;BME280;34681;49.188;-0.374;2023-02-01T01:47:30;102712.56;;;10.43;64.37
48862;BME280;34681;49.188;-0.374;2023-02-01T01:49:57;102712.66;;;10.27;64.46
48862;BME280;34681;49.188;-0.374;2023-02-01T01:52:23;102698.06;;;10.12;65.01
48862;BME280;34681;49.188;-0.374;2023-02-01T01:54:51;102706.59;;;10.36;64.80
48862;BME280;34681;49.188;-0.374;2023-02-01T01:57:22;102725.97;;;10.18;64.89
48862;BME280;34681;49.188;-0.374;2023-02-01T02:00:09;102711.38;;;10.61;63.79
48862;BME280;34681;49.188;-0.374;2023-02-01T02:02:36;102705.13;;;10.31;64.52
48862;BME280;34681;49.188;-0.374;2023-02-01T02:05:02;102716.94;;;10.31;64.69
48862;BME280;34681;49.188;-0.374;2023-02-01T02:07:33;102711.72;;;10.12;64.51
48862;BME280;34681;49.188;-0.374;2023-02-01T02:10:02;102721.78;;;10.12;64.81
48862;BME280;34681;49.188;-0.374;2023-02-01T02:12:31;102726.50;;;10.10;65.08
48862;BME280;34681;49.188;-0.374;2023-02-01T02:14:57;102722.59;;;9.84;65.28
48862;BME280;34681;49.188;-0.374;2023-02-01T02:17:44;102727.53;;;9.63;66.16
48862;BME280;34681;49.188;-0.374;2023-02-01T02:20:45;102727.66;;;9.76;65.94
48862;BME280;34681;49.188;-0.374;2023-02-01T02:26:00;102714.75;;;9.64;66.06
48862;BME280;34681;49.188;-0.374;2023-02-01T02:34:31;102691.84;;;9.50;66.16
48862;BME280;34681;49.188;-0.374;2023-02-01T02:37:55;102695.09;;;9.57;66.04
48862;BME280;34681;49.188;-0.374;2023-02-01T02:40:00;102702.75;;;9.36;66.54
48862;BME280;34681;49.188;-0.374;2023-02-01T02:48:17;102697.59;;;9.00;67.49
48862;BME280;34681;49.188;-0.374;2023-02-01T02:51:00;102705.09;;;8.96;67.55
48862;BME280;34681;49.188;-0.374;2023-02-01T02:56:51;102711.56;;;9.25;66.99
48862;BME280;34681;49.188;-0.374;2023-02-01T02:59:37;102714.69;;;9.04;67.54
48862;BME280;34681;49.188;-0.374;2023-02-01T03:02:25;102710.97;;;9.36;67.04
48862;BME280;34681;49.188;-0.374;2023-02-01T03:05:10;102720.63;;;9.42;66.77
48862;BME280;34681;49.188;-0.374;2023-02-01T03:12:51;102719.88;;;9.84;65.88
48862;BME280;34681;49.188;-0.374;2023-02-01T03:21:04;102719.56;;;10.19;64.69
48862;BME280;34681;49.188;-0.374;2023-02-01T03:23:33;102716.84;;;10.33;64.24
48862;BME280;34681;49.188;-0.374;2023-02-01T03:26:01;102710.28;;;10.50;63.83
48862;BME280;34681;49.188;-0.374;2023-02-01T03:28:30;102697.22;;;10.26;64.67
48862;BME280;34681;49.188;-0.374;2023-02-01T03:30:58;102688.59;;;10.47;63.97
48862;BME280;34681;49.188;-0.374;2023-02-01T03:33:25;102696.91;;;10.59;63.47
48862;BME280;34681;49.188;-0.374;2023-02-01T03:38:58;102701.13;;;10.36;64.00
48862;BME280;34681;49.188;-0.374;2023-02-01T03:46:22;102702.41;;;10.01;64.67
48862;BME280;34681;49.188;-0.374;2023-02-01T03:48:50;102707.34;;;10.10;64.88
48862;BME280;34681;49.188;-0.374;2023-02-01T03:51:19;102691.44;;;10.31;64.05
48862;BME280;34681;49.188;-0.374;2023-02-01T03:53:47;102693.84;;;10.21;64.08
48862;BME280;34681;49.188;-0.374;2023-02-01T03:56:15;102704.03;;;10.19;64.23
48862;BME280;34681;49.188;-0.374;2023-02-01T03:58:43;102692.63;;;10.27;64.05
48862;BME280;34681;49.188;-0.374;2023-02-01T04:01:23;102694.06;;;10.47;63.25
48862;BME280;34681;49.188;-0.374;2023-02-01T04:03:48;102691.63;;;10.42;63.53
48862;BME280;34681;49.188;-0.374;2023-02-01T04:06:14;102688.00;;;10.41;63.65
48862;BME280;34681;49.188;-0.374;2023-02-01T04:08:40;102690.53;;;10.59;62.89
48862;BME280;34681;49.188;-0.374;2023-02-01T04:11:05;102678.53;;;10.61;62.95
48862;BME280;34681;49.188;-0.374;2023-02-01T04:13:30;102685.97;;;10.45;63.48
48862;BME280;34681;49.188;-0.374;2023-02-01T04:15:56;102692.72;;;10.54;63.28
48862;BME280;34681;49.188;-0.374;2023-02-01T04:18:21;102686.41;;;10.66;62.82
48862;BME280;34681;49.188;-0.374;2023-02-01T04:20:46;102694.63;;;10.66;62.86
48862;BME280;34681;49.188;-0.374;2023-02-01T04:23:12;102693.66;;;10.67;62.79
48862;BME280;34681;49.188;-0.374;2023-02-01T04:25:37;102686.91;;;10.58;63.34
48862;BME280;34681;49.188;-0.374;2023-02-01T04:28:02;102677.22;;;10.67;62.75
48862;BME280;34681;49.188;-0.374;2023-02-01T04:30:28;102686.75;;;10.61;62.97
48862;BME280;34681;49.188;-0.374;2023-02-01T04:32:54;102691.00;;;10.65;62.96
48862;BME280;34681;49.188;-0.374;2023-02-01T04:35:19;102680.97;;;10.52;63.16
48862;BME280;34681;49.188;-0.374;2023-02-01T04:37:44;102680.06;;;9.94;64.15
48862;BME280;34681;49.188;-0.374;2023-02-01T04:40:10;102681.13;;;9.77;64.94
48862;BME280;34681;49.188;-0.374;2023-02-01T04:42:36;102685.53;;;10.08;64.09
48862;BME280;34681;49.188;-0.374;2023-02-01T04:45:02;102684.03;;;9.74;64.76
48862;BME280;34681;49.188;-0.374;2023-02-01T04:47:27;102682.31;;;9.88;64.53
48862;BME280;34681;49.188;-0.374;2023-02-01T04:49:53;102692.00;;;10.22;63.44
48862;BME280;34681;49.188;-0.374;2023-02-01T04:52:18;102695.44;;;10.25;63.15
48862;BME280;34681;49.188;-0.374;2023-02-01T04:54:43;102701.34;;;10.18;63.49
48862;BME280;34681;49.188;-0.374;2023-02-01T04:57:08;102699.81;;;10.13;63.91
48862;BME280;34681;49.188;-0.374;2023-02-01T04:59:34;102701.06;;;9.94;64.09
48862;BME280;34681;49.188;-0.374;2023-02-01T05:02:00;102696.09;;;10.14;63.87
48862;BME280;34681;49.188;-0.374;2023-02-01T05:04:25;102703.06;;;10.49;62.77
48862;BME280;34681;49.188;-0.374;2023-02-01T05:06:50;102701.41;;;10.32;63.44
48862;BME280;34681;49.188;-0.374;2023-02-01T05:09:16;102701.19;;;10.49;62.77
48862;BME280;34681;49.188;-0.374;2023-02-01T05:11:41;102701.59;;;10.57;62.31
48862;BME280;34681;49.188;-0.374;2023-02-01T05:14:25;102709.72;;;10.45;62.81
48862;BME280;34681;49.188;-0.374;2023-02-01T05:16:51;102704.03;;;10.48;62.88
48862;BME280;34681;49.188;-0.374;2023-02-01T05:19:16;102708.44;;;10.50;62.79
48862;BME280;34681;49.188;-0.374;2023-02-01T05:21:41;102703.16;;;10.33;63.19
48862;BME280;34681;49.188;-0.374;2023-02-01T05:24:08;102708.25;;;10.53;62.73
48862;BME280;34681;49.188;-0.374;2023-02-01T05:26:45;102720.25;;;10.51;62.63
48862;BME280;34681;49.188;-0.374;2023-02-01T05:29:11;102712.63;;;10.56;62.72
48862;BME280;34681;49.188;-0.374;2023-02-01T05:31:36;102711.66;;;10.71;62.42
48862;BME280;34681;49.188;-0.374;2023-02-01T05:34:02;102698.44;;;10.78;62.19
48862;BME280;34681;49.188;-0.374;2023-02-01T05:36:28;102687.88;;;10.72;62.30
48862;BME280;34681;49.188;-0.374;2023-02-01T05:38:53;102697.88;;;10.58;62.67
48862;BME280;34681;49.188;-0.374;2023-02-01T05:41:19;102702.28;;;10.61;62.79
48862;BME280;34681;49.188;-0.374;2023-02-01T05:43:44;102699.16;;;10.53;63.02
48862;BME280;34681;49.188;-0.374;2023-02-01T05:46:09;102700.81;;;10.55;62.82
48862;BME280;34681;49.188;-0.374;2023-02-01T05:48:42;102700.91;;;10.54;63.19
48862;BME280;34681;49.188;-0.374;2023-02-01T05:51:07;102707.75;;;10.47;63.14
48862;BME280;34681;49.188;-0.374;2023-02-01T05:53:33;102710.13;;;10.38;63.21
48862;BME280;34681;49.188;-0.374;2023-02-01T05:55:58;102717.72;;;10.33;63.88
48862;BME280;34681;49.188;-0.374;2023-02-01T05:58:23;102725.94;;;10.48;63.36
48862;BME280;34681;49.188;-0.374;2023-02-01T06:00:49;102735.63;;;10.39;63.76
48862;BME280;34681;49.188;-0.374;2023-02-01T06:03:14;102730.91;;;10.41;63.85
48862;BME280;34681;49.188;-0.374;2023-02-01T06:05:40;102716.47;;;10.39;63.89
48862;BME280;34681;49.188;-0.374;2023-02-01T06:08:05;102723.22;;;10.62;63.33
48862;BME280;34681;49.188;-0.374;2023-02-01T06:10:33;102724.00;;;10.35;63.97
48862;BME280;34681;49.188;-0.374;2023-02-01T06:12:58;102720.28;;;10.36;64.04
48862;BME280;34681;49.188;-0.374;2023-02-01T06:15:24;102732.59;;;10.44;63.87
48862;BME280;34681;49.188;-0.374;2023-02-01T06:17:49;102726.22;;;10.57;63.54
48862;BME280;34681;49.188;-0.374;2023-02-01T06:20:15;102725.66;;;10.52;63.37
48862;BME280;34681;49.188;-0.374;2023-02-01T06:22:41;102717.94;;;10.45;63.94
48862;BME280;34681;49.188;-0.374;2023-02-01T06:25:09;102724.78;;;10.52;63.82
48862;BME280;34681;49.188;-0.374;2023-02-01T06:27:34;102723.22;;;10.62;63.38
48862;BME280;34681;49.188;-0.374;2023-02-01T06:30:00;102724.28;;;10.59;63.39
48862;BME280;34681;49.188;-0.374;2023-02-01T06:32:26;102731.81;;;10.70;63.34
48862;BME280;34681;49.188;-0.374;2023-02-01T06:34:51;102729.38;;;10.51;63.98
48862;BME280;34681;49.188;-0.374;2023-02-01T06:37:21;102739.81;;;10.59;63.73
48862;BME280;34681;49.188;-0.374;2023-02-01T06:39:48;102741.78;;;10.71;63.51
48862;BME280;34681;49.188;-0.374;2023-02-01T06:42:13;102741.56;;;10.74;63.64
48862;BME280;34681;49.188;-0.374;2023-02-01T06:44:39;102762.13;;;10.53;64.22
48862;BME280;34681;49.188;-0.374;2023-02-01T06:47:04;102757.03;;;10.61;63.89
48862;BME280;34681;49.188;-0.374;2023-02-01T06:49:30;102771.41;;;10.79;63.58
48862;BME280;34681;49.188;-0.374;2023-02-01T06:51:55;102759.88;;;10.59;64.02
48862;BME280;34681;49.188;-0.374;2023-02-01T06:54:21;102756.13;;;10.75;63.76
48862;BME280;34681;49.188;-0.374;2023-02-01T06:56:46;102744.03;;;10.64;64.15
48862;BME280;34681;49.188;-0.374;2023-02-01T06:59:11;102748.22;;;10.70;64.21
48862;BME280;34681;49.188;-0.374;2023-02-01T07:01:37;102747.63;;;10.65;64.43
48862;BME280;34681;49.188;-0.374;2023-02-01T07:04:02;102747.56;;;10.52;64.84
48862;BME280;34681;49.188;-0.374;2023-02-01T07:06:27;102744.78;;;10.66;64.54
48862;BME280;34681;49.188;-0.374;2023-02-01T07:08:53;102738.16;;;10.56;64.69
48862;BME280;34681;49.188;-0.374;2023-02-01T07:11:21;102741.97;;;10.39;65.19
48862;BME280;34681;49.188;-0.374;2023-02-01T07:13:47;102734.34;;;10.30;65.49
48862;BME280;34681;49.188;-0.374;2023-02-01T07:16:15;102732.22;;;10.35;65.46
48862;BME280;34681;49.188;-0.374;2023-02-01T07:18:41;102735.50;;;10.40;65.53
48862;BME280;34681;49.188;-0.374;2023-02-01T07:21:06;102726.22;;;10.57;64.96
48862;BME280;34681;49.188;-0.374;2023-02-01T07:23:32;102734.81;;;10.65;64.46
48862;BME280;34681;49.188;-0.374;2023-02-01T07:25:59;102735.31;;;10.29;65.59
48862;BME280;34681;49.188;-0.374;2023-02-01T07:28:25;102721.72;;;10.42;65.31
48862;BME280;34681;49.188;-0.374;2023-02-01T07:30:51;102711.97;;;10.24;65.63
48862;BME280;34681;49.188;-0.374;2023-02-01T07:33:21;102708.63;;;10.19;65.83
48862;BME280;34681;49.188;-0.374;2023-02-01T07:35:49;102706.38;;;10.25;65.93
48862;BME280;34681;49.188;-0.374;2023-02-01T07:38:15;102678.63;;;10.31;65.61
48862;BME280;34681;49.188;-0.374;2023-02-01T07:40:41;102694.47;;;10.40;65.06
48862;BME280;34681;49.188;-0.374;2023-02-01T07:43:07;102707.63;;;10.20;65.55
48862;BME280;34681;49.188;-0.374;2023-02-01T07:45:34;102721.78;;;10.12;65.54
48862;BME280;34681;49.188;-0.374;2023-02-01T07:47:59;102726.81;;;10.34;65.35
48862;BME280;34681;49.188;-0.374;2023-02-01T07:50:24;102722.81;;;10.54;64.31
48862;BME280;34681;49.188;-0.374;2023-02-01T07:52:50;102734.03;;;10.49;64.49
48862;BME280;34681;49.188;-0.374;2023-02-01T07:55:15;102738.47;;;10.37;65.00
48862;BME280;34681;49.188;-0.374;2023-02-01T07:57:41;102746.91;;;10.19;65.57
48862;BME280;34681;49.188;-0.374;2023-02-01T08:00:08;102748.81;;;10.32;65.42
48862;BME280;34681;49.188;-0.374;2023-02-01T08:02:52;102747.91;;;10.75;64.20
48862;BME280;34681;49.188;-0.374;2023-02-01T08:05:17;102745.78;;;10.80;64.47
48862;BME280;34681;49.188;-0.374;2023-02-01T08:07:42;102750.84;;;10.72;64.99
48862;BME280;34681;49.188;-0.374;2023-02-01T08:10:08;102751.63;;;10.88;64.38
48862;BME280;34681;49.188;-0.374;2023-02-01T08:12:36;102757.19;;;11.01;64.14
48862;BME280;34681;49.188;-0.374;2023-02-01T08:15:03;102763.72;;;10.98;64.29
48862;BME280;34681;49.188;-0.374;2023-02-01T08:17:28;102765.00;;;11.07;64.12
48862;BME280;34681;49.188;-0.374;2023-02-01T08:19:54;102772.16;;;10.81;65.23
48862;BME280;34681;49.188;-0.374;2023-02-01T08:22:20;102774.50;;;11.01;64.32
48862;BME280;34681;49.188;-0.374;2023-02-01T08:24:47;102771.16;;;11.10;64.15
48862;BME280;34681;49.188;-0.374;2023-02-01T08:27:13;102770.56;;;11.05;64.74
48862;BME280;34681;49.188;-0.374;2023-02-01T08:29:38;102768.16;;;11.01;64.70
48862;BME280;34681;49.188;-0.374;2023-02-01T08:32:04;102771.69;;;10.88;65.14
48862;BME280;34681;49.188;-0.374;2023-02-01T08:34:29;102761.75;;;11.00;64.86
48862;BME280;34681;49.188;-0.374;2023-02-01T08:36:55;102774.69;;;10.98;64.85
48862;BME280;34681;49.188;-0.374;2023-02-01T08:39:24;102775.28;;;10.89;65.58
48862;BME280;34681;49.188;-0.374;2023-02-01T08:41:50;102770.34;;;11.22;64.60
48862;BME280;34681;49.188;-0.374;2023-02-01T08:44:34;102776.78;;;11.36;64.06
48862;BME280;34681;49.188;-0.374;2023-02-01T08:47:00;102771.47;;;11.33;64.15
48862;BME280;34681;49.188;-0.374;2023-02-01T08:49:26;102779.75;;;11.45;63.81
48862;BME280;34681;49.188;-0.374;2023-02-01T08:51:51;102786.75;;;11.64;63.19
48862;BME280;34681;49.188;-0.374;2023-02-01T08:54:17;102795.28;;;11.59;63.46
48862;BME280;34681;49.188;-0.374;2023-02-01T08:56:42;102793.88;;;11.66;62.92
48862;BME280;34681;49.188;-0.374;2023-02-01T08:59:07;102805.41;;;11.71;62.49
48862;BME280;34681;49.188;-0.374;2023-02-01T09:01:32;102801.03;;;11.69;62.31
48862;BME280;34681;49.188;-0.374;2023-02-01T09:03:58;102807.22;;;11.31;63.12
48862;BME280;34681;49.188;-0.374;2023-02-01T09:06:23;102789.84;;;11.45;62.37
48862;BME280;34681;49.188;-0.374;2023-02-01T09:08:48;102801.69;;;11.72;61.13
48862;BME280;34681;49.188;-0.374;2023-02-01T09:11:16;102803.88;;;11.67;61.48
48862;BME280;34681;49.188;-0.374;2023-02-01T09:13:42;102813.34;;;11.76;61.81
48862;BME280;34681;49.188;-0.374;2023-02-01T09:16:08;102811.88;;;11.97;61.29
48862;BME280;34681;49.188;-0.374;2023-02-01T09:18:33;102811.75;;;12.26;61.23
48862;BME280;34681;49.188;-0.374;2023-02-01T09:21:03;102805.28;;;12.78;59.19
48862;BME280;34681;49.188;-0.374;2023-02-01T09:23:29;102800.31;;;12.57;60.31
48862;BME280;34681;49.188;-0.374;2023-02-01T09:25:54;102798.22;;;12.48;60.17
48862;BME280;34681;49.188;-0.374;2023-02-01T09:28:23;102799.19;;;12.22;61.31
48862;BME280;34681;49.188;-0.374;2023-02-01T09:30:48;102793.75;;;12.34;60.71
48862;BME280;34681;49.188;-0.374;2023-02-01T09:33:14;102801.41;;;12.17;61.40
48862;BME280;34681;49.188;-0.374;2023-02-01T09:35:39;102802.94;;;12.21;61.25
48862;BME280;34681;49.188;-0.374;2023-02-01T09:38:05;102800.66;;;12.40;61.15
48862;BME280;34681;49.188;-0.374;2023-02-01T09:40:30;102803.72;;;12.35;61.23
48862;BME280;34681;49.188;-0.374;2023-02-01T09:43:16;102792.53;;;12.64;60.63
48862;BME280;34681;49.188;-0.374;2023-02-01T09:46:12;102795.47;;;12.86;60.41
48862;BME280;34681;49.188;-0.374;2023-02-01T09:48:42;102793.25;;;13.04;59.44
48862;BME280;34681;49.188;-0.374;2023-02-01T09:51:16;102791.16;;;13.08;58.48
48862;BME280;34681;49.188;-0.374;2023-02-01T09:53:47;102791.53;;;12.65;59.55
48862;BME280;34681;49.188;-0.374;2023-02-01T09:56:47;102789.13;;;12.48;59.76
48862;BME280;34681;49.188;-0.374;2023-02-01T09:59:39;102779.88;;;12.49;59.63
48862;BME280;34681;49.188;-0.374;2023-02-01T10:02:13;102785.91;;;12.16;60.12
48862;BME280;34681;49.188;-0.374;2023-02-01T10:04:40;102786.84;;;11.89;60.84
48862;BME280;34681;49.188;-0.374;2023-02-01T10:10:00;102794.56;;;11.70;60.77
48862;BME280;34681;49.188;-0.374;2023-02-01T10:15:42;102809.63;;;11.77;61.28
48862;BME280;34681;49.188;-0.374;2023-02-01T10:28:37;102821.50;;;11.63;61.09
48862;BME280;34681;49.188;-0.374;2023-02-01T10:31:05;102828.91;;;11.75;60.65
48862;BME280;34681;49.188;-0.374;2023-02-01T10:33:43;102825.03;;;11.65;61.06
48862;BME280;34681;49.188;-0.374;2023-02-01T10:36:36;102835.94;;;11.94;60.66
48862;BME280;34681;49.188;-0.374;2023-02-01T10:39:06;102838.66;;;11.94;60.66
48862;BME280;34681;49.188;-0.374;2023-02-01T10:41:34;102839.59;;;11.80;60.16
48862;BME280;34681;49.188;-0.374;2023-02-01T10:44:03;102841.94;;;11.72;60.30
48862;BME280;34681;49.188;-0.374;2023-02-01T10:46:30;102843.53;;;12.03;59.24
48862;BME280;34681;49.188;-0.374;2023-02-01T10:48:58;102832.66;;;12.14;58.81
48862;BME280;34681;49.188;-0.374;2023-02-01T10:51:47;102835.03;;;12.33;58.60
48862;BME280;34681;49.188;-0.374;2023-02-01T10:54:18;102827.44;;;11.84;59.15
48862;BME280;34681;49.188;-0.374;2023-02-01T10:56:46;102820.00;;;11.86;59.52
48862;BME280;34681;49.188;-0.374;2023-02-01T10:59:18;102820.19;;;11.83;59.88
48862;BME280;34681;49.188;-0.374;2023-02-01T11:01:48;102811.78;;;11.72;60.18
48862;BME280;34681;49.188;-0.374;2023-02-01T11:04:18;102809.91;;;11.87;60.06
48862;BME280;34681;49.188;-0.374;2023-02-01T11:07:13;102811.66;;;11.88;60.27
48862;BME280;34681;49.188;-0.374;2023-02-01T11:09:41;102821.28;;;11.80;60.42
48862;BME280;34681;49.188;-0.374;2023-02-01T11:12:24;102821.63;;;11.89;60.65
48862;BME280;34681;49.188;-0.374;2023-02-01T11:14:50;102817.63;;;12.07;60.44
48862;BME280;34681;49.188;-0.374;2023-02-01T11:19:47;102817.25;;;11.99;60.70
48862;BME280;34681;49.188;-0.374;2023-02-01T11:22:13;102809.91;;;11.72;61.30
48862;BME280;34681;49.188;-0.374;2023-02-01T11:24:39;102817.03;;;11.75;61.04
48862;BME280;34681;49.188;-0.374;2023-02-01T11:27:16;102819.47;;;12.06;60.69
48862;BME280;34681;49.188;-0.374;2023-02-01T11:29:44;102813.88;;;11.95;61.01
48862;BME280;34681;49.188;-0.374;2023-02-01T11:32:12;102811.13;;;11.68;61.44
48862;BME280;34681;49.188;-0.374;2023-02-01T11:37:31;102828.16;;;12.00;61.13
48862;BME280;34681;49.188;-0.374;2023-02-01T11:45:28;102815.22;;;12.02;61.79
48862;BME280;34681;49.188;-0.374;2023-02-01T11:47:56;102821.69;;;12.01;60.89
48862;BME280;34681;49.188;-0.374;2023-02-01T12:13:23;102787.47;;;12.32;56.38
48862;BME280;34681;49.188;-0.374;2023-02-01T12:16:24;102794.91;;;12.81;56.11
48862;BME280;34681;49.188;-0.374;2023-02-01T12:24:40;102786.53;;;13.21;53.96
48862;BME280;34681;49.188;-0.374;2023-02-01T12:36:02;102771.31;;;13.15;51.73
48862;BME280;34681;49.188;-0.374;2023-02-01T12:41:58;102750.69;;;13.10;53.00
48862;BME280;34681;49.188;-0.374;2023-02-01T12:47:47;102742.78;;;13.42;53.14
48862;BME280;34681;49.188;-0.374;2023-02-01T12:50:33;102740.22;;;13.28;53.70
48862;BME280;34681;49.188;-0.374;2023-02-01T12:53:27;102744.13;;;13.00;54.33
48862;BME280;34681;49.188;-0.374;2023-02-01T12:55:58;102743.00;;;13.02;54.61
48862;BME280;34681;49.188;-0.374;2023-02-01T12:58:30;102742.25;;;13.00;53.86
48862;BME280;34681;49.188;-0.374;2023-02-01T13:01:11;102734.22;;;12.97;54.70
48862;BME280;34681;49.188;-0.374;2023-02-01T13:06:50;102740.25;;;13.02;53.98
48862;BME280;34681;49.188;-0.374;2023-02-01T13:09:24;102741.09;;;13.15;53.54
48862;BME280;34681;49.188;-0.374;2023-02-01T13:11:54;102733.19;;;13.11;53.65
48862;BME280;34681;49.188;-0.374;2023-02-01T13:17:09;102737.47;;;13.15;53.76
48862;BME280;34681;49.188;-0.374;2023-02-01T13:19:49;102738.66;;;13.24;52.51
48862;BME280;34681;49.188;-0.374;2023-02-01T13:22:46;102740.13;;;13.40;52.48
48862;BME280;34681;49.188;-0.374;2023-02-01T13:25:27;102740.31;;;13.74;52.57
48862;BME280;34681;49.188;-0.374;2023-02-01T13:27:56;102732.00;;;13.63;52.63
48862;BME280;34681;49.188;-0.374;2023-02-01T13:36:32;102716.81;;;13.81;52.07
48862;BME280;34681;49.188;-0.374;2023-02-01T13:42:29;102728.81;;;14.15;51.05
48862;BME280;34681;49.188;-0.374;2023-02-01T13:44:50;102718.59;;;13.82;51.70
48862;BME280;34681;49.188;-0.374;2023-02-01T13:50:01;102720.16;;;13.73;51.71
48862;BME280;34681;49.188;-0.374;2023-02-01T13:52:34;102724.84;;;13.49;52.50
48862;BME280;34681;49.188;-0.374;2023-02-01T13:55:15;102718.41;;;13.72;52.14
48862;BME280;34681;49.188;-0.374;2023-02-01T13:57:42;102720.69;;;13.43;52.50
48862;BME280;34681;49.188;-0.374;2023-02-01T14:00:37;102723.47;;;13.55;52.70
48862;BME280;34681;49.188;-0.374;2023-02-01T14:03:14;102715.00;;;13.58;52.60
48862;BME280;34681;49.188;-0.374;2023-02-01T14:13:22;102730.72;;;13.32;53.63
48862;BME280;34681;49.188;-0.374;2023-02-01T14:26:21;102715.94;;;13.21;55.16
48862;BME280;34681;49.188;-0.374;2023-02-01T14:28:56;102717.91;;;13.19;55.58
48862;BME280;34681;49.188;-0.374;2023-02-01T14:34:00;102727.72;;;12.98;55.87
48862;BME280;34681;49.188;-0.374;2023-02-01T14:36:40;102717.78;;;12.84;56.45
48862;BME280;34681;49.188;-0.374;2023-02-01T14:39:19;102702.06;;;12.86;56.56
48862;BME280;34681;49.188;-0.374;2023-02-01T14:41:46;102704.69;;;12.88;56.67
48862;BME280;34681;49.188;-0.374;2023-02-01T14:44:14;102715.25;;;12.81;57.14
48862;BME280;34681;49.188;-0.374;2023-02-01T14:49:30;102711.47;;;13.08;56.61
48862;BME280;34681;49.188;-0.374;2023-02-01T14:51:57;102716.16;;;13.06;56.68
48862;BME280;34681;49.188;-0.374;2023-02-01T14:54:23;102715.34;;;13.29;56.53
48862;BME280;34681;49.188;-0.374;2023-02-01T14:56:49;102725.50;;;13.16;56.57
48862;BME280;34681;49.188;-0.374;2023-02-01T14:59:20;102723.72;;;12.91;56.69
48862;BME280;34681;49.188;-0.374;2023-02-01T15:01:55;102727.91;;;12.71;56.87
48862;BME280;34681;49.188;-0.374;2023-02-01T15:04:25;102728.59;;;12.49;57.81
48862;BME280;34681;49.188;-0.374;2023-02-01T15:07:04;102724.34;;;12.58;57.92
48862;BME280;34681;49.188;-0.374;2023-02-01T15:09:36;102729.81;;;12.45;58.43
48862;BME280;34681;49.188;-0.374;2023-02-01T15:12:04;102722.22;;;12.49;58.31
48862;BME280;34681;49.188;-0.374;2023-02-01T15:15:03;102723.97;;;12.75;58.07
48862;BME280;34681;49.188;-0.374;2023-02-01T15:17:34;102719.53;;;12.85;57.91
48862;BME280;34681;49.188;-0.374;2023-02-01T15:22:28;102714.47;;;12.92;57.60
48862;BME280;34681;49.188;-0.374;2023-02-01T15:24:56;102711.63;;;12.81;57.06